EPLB

Lublin Airport

Lublin, Poland
METAR EPLB 222100Z 30004KT CAVOK 08/04 Q1015
Observed Flight Rules
Apr-22 @ 21:00 UTC (38 minutes ago) Visual Flight Rules
Wind Visibility Clouds
300° at 4 knots 10,000+ meters
  • Clear skies
Temperatures Readings
Current 8°C / 46°F
Dewpoint 4°C / 39°F
Humidity 76%
Altimeter 29.97" Hg
Pressure 1015 hPa
Elevation 206
METAR EPLB 222100Z 30004KT CAVOK 08/04 Q1015
Observed Flight Rules
Apr-22 @ 21:00 UTC
(38 minutes ago)
VFR
Wind Visibility
300° at 4 knots 10,000+ meters
Clouds
  • Clear skies
Temperature Dewpoint
8°C / 46°F 4°C / 39°F
Humidity Altimeter Pressure
76% 29.97" Hg 1015 hPa